createdAt,value
2022-09-22T00:02:14.690Z,70.93
2022-09-22T00:12:46.696Z,71.06
2022-09-22T00:23:14.593Z,71.12
2022-09-22T00:33:42.763Z,71.05
2022-09-22T00:44:43.590Z,70.81
2022-09-22T00:55:17.132Z,70.59
2022-09-22T01:05:47.459Z,70.76
2022-09-22T01:16:27.080Z,70.80
2022-09-22T01:27:12.321Z,71.28
2022-09-22T01:37:50.318Z,71.50
2022-09-22T01:48:22.245Z,71.71
2022-09-22T01:58:53.899Z,72.05
2022-09-22T02:09:25.518Z,72.23
2022-09-22T02:19:53.648Z,72.23
2022-09-22T02:30:22.386Z,72.23
2022-09-22T02:41:01.362Z,72.53
2022-09-22T02:51:31.073Z,72.90
2022-09-22T03:01:59.042Z,72.76
2022-09-22T03:12:27.028Z,72.59
2022-09-22T03:22:54.834Z,71.88
2022-09-22T03:33:22.837Z,72.11
2022-09-22T03:43:50.979Z,71.90
2022-09-22T03:54:17.365Z,71.81
2022-09-22T04:04:45.269Z,71.64
2022-09-22T04:15:13.735Z,71.93
2022-09-22T04:25:41.956Z,72.00
2022-09-22T04:36:10.536Z,72.12
2022-09-22T04:46:38.413Z,71.83
2022-09-22T04:57:06.807Z,71.74
2022-09-22T05:07:34.753Z,71.83
2022-09-22T05:18:02.497Z,71.95
2022-09-22T05:28:30.362Z,71.69
2022-09-22T05:38:58.316Z,71.52
2022-09-22T05:49:26.330Z,71.54
2022-09-22T05:59:54.398Z,71.78
2022-09-22T06:10:22.432Z,71.46
2022-09-22T06:20:50.425Z,71.58
2022-09-22T06:31:18.564Z,71.65
2022-09-22T06:41:45.950Z,72.00
2022-09-22T06:52:15.323Z,71.86
2022-09-22T07:02:43.608Z,71.58
2022-09-22T07:13:10.852Z,71.76
2022-09-22T07:23:39.486Z,71.72
2022-09-22T07:34:07.550Z,71.73
2022-09-22T07:44:52.891Z,71.58
2022-09-22T07:55:22.327Z,71.24
2022-09-22T08:05:52.431Z,71.08
2022-09-22T08:16:20.918Z,70.87
2022-09-22T08:26:50.330Z,70.93
2022-09-22T08:37:18.274Z,70.33
2022-09-22T08:48:09.103Z,70.13
2022-09-22T08:58:49.776Z,69.49
2022-09-22T09:09:40.669Z,69.38
2022-09-22T09:20:19.449Z,68.46
2022-09-22T09:30:51.504Z,67.08
2022-09-22T09:41:23.734Z,67.22
2022-09-22T09:51:55.143Z,67.66
2022-09-22T10:02:27.596Z,66.47
2022-09-22T10:12:57.033Z,64.59
2022-09-22T10:23:29.145Z,63.90
2022-09-22T10:33:59.089Z,64.13
2022-09-22T10:44:38.663Z,64.02
2022-09-22T10:55:20.470Z,63.76
2022-09-22T11:06:18.506Z,62.69
2022-09-22T11:17:16.129Z,62.27
2022-09-22T11:28:00.101Z,62.10
2022-09-22T11:38:43.810Z,61.89
2022-09-22T11:49:25.746Z,62.07
2022-09-22T11:59:57.953Z,61.76
2022-09-22T12:10:38.183Z,61.83
2022-09-22T12:21:15.879Z,61.58
2022-09-22T12:31:47.516Z,63.04
2022-09-22T12:42:23.823Z,65.10
2022-09-22T12:53:06.650Z,65.77
2022-09-22T13:03:51.364Z,67.34
2022-09-22T13:14:49.663Z,67.32
2022-09-22T13:25:22.567Z,65.76
2022-09-22T13:35:57.306Z,65.78
2022-09-22T13:46:30.225Z,65.11
2022-09-22T13:56:59.678Z,64.91
2022-09-22T14:07:31.038Z,64.89
2022-09-22T14:17:59.569Z,65.24
2022-09-22T14:28:31.088Z,65.29
2022-09-22T14:39:10.167Z,65.59
2022-09-22T14:49:42.555Z,65.66
2022-09-22T15:00:36.025Z,65.83
2022-09-22T15:11:03.955Z,66.19
2022-09-22T15:21:35.233Z,66.31
2022-09-22T15:32:04.571Z,66.11
2022-09-22T15:42:32.609Z,66.39
2022-09-22T15:53:00.501Z,66.55
2022-09-22T16:03:28.670Z,65.66
2022-09-22T16:13:58.351Z,65.20
2022-09-22T16:24:28.697Z,65.20
2022-09-22T16:34:56.840Z,65.20
2022-09-22T16:45:38.735Z,65.57
2022-09-22T16:56:07.036Z,65.67
2022-09-22T17:06:36.304Z,66.05
2022-09-22T17:17:06.808Z,66.32
2022-09-22T17:27:34.754Z,66.65
2022-09-22T17:38:02.284Z,66.06
2022-09-22T17:48:47.935Z,66.05
2022-09-22T17:59:16.132Z,66.20
2022-09-22T18:09:44.665Z,65.98
2022-09-22T18:20:15.035Z,66.18
2022-09-22T18:30:43.526Z,66.42
2022-09-22T18:41:11.542Z,66.26
2022-09-22T18:51:42.764Z,65.96
2022-09-22T19:02:13.271Z,65.60
2022-09-22T19:12:41.495Z,65.65
2022-09-22T19:23:09.467Z,65.56
2022-09-22T19:33:37.672Z,65.55
2022-09-22T19:44:06.294Z,65.34
2022-09-22T19:54:34.507Z,65.38
2022-09-22T20:05:02.553Z,65.93
2022-09-22T20:15:30.475Z,65.87
2022-09-22T20:25:58.450Z,65.73
2022-09-22T20:36:26.533Z,65.59
2022-09-22T20:46:54.606Z,65.47
2022-09-22T20:57:22.611Z,65.23
2022-09-22T21:08:11.634Z,65.35
2022-09-22T21:18:41.003Z,65.36
2022-09-22T21:29:10.342Z,65.64
2022-09-22T21:39:38.176Z,65.74
2022-09-22T21:50:06.802Z,65.82
2022-09-22T22:00:51.083Z,65.81
2022-09-22T22:11:22.346Z,65.77
2022-09-22T22:21:51.487Z,66.76
2022-09-22T22:32:19.357Z,67.40
2022-09-22T22:42:47.406Z,67.36
2022-09-22T22:53:16.102Z,67.72
2022-09-22T23:03:46.158Z,67.81
2022-09-22T23:14:16.362Z,67.49
2022-09-22T23:24:44.626Z,67.25
2022-09-22T23:35:12.897Z,66.66
2022-09-22T23:45:40.915Z,67.17
2022-09-22T23:56:09.567Z,68.36
